createdAt,value
2017-11-23T00:00:21.269Z,57.30
2017-11-23T00:02:48.728Z,57.30
2017-11-23T00:05:16.183Z,57.10
2017-11-23T00:07:43.621Z,56.50
2017-11-23T00:10:11.164Z,57.10
2017-11-23T00:12:40.109Z,56.40
2017-11-23T00:15:07.555Z,56.40
2017-11-23T00:17:34.982Z,57.10
2017-11-23T00:20:02.425Z,56.50
2017-11-23T00:22:29.981Z,56.20
2017-11-23T00:24:57.457Z,56.00
2017-11-23T00:27:24.892Z,55.90
2017-11-23T00:29:52.408Z,55.60
2017-11-23T00:32:19.834Z,55.90
2017-11-23T00:34:47.324Z,55.10
2017-11-23T00:37:14.770Z,55.20
2017-11-23T00:39:42.202Z,55.50
2017-11-23T00:42:09.642Z,55.20
2017-11-23T00:44:37.123Z,55.50
2017-11-23T00:47:05.361Z,55.50
2017-11-23T00:49:32.971Z,55.50
2017-11-23T00:52:00.445Z,55.60
2017-11-23T00:54:27.865Z,55.70
2017-11-23T00:56:55.307Z,56.10
2017-11-23T00:59:22.742Z,56.00
2017-11-23T01:01:50.389Z,56.40
2017-11-23T01:04:17.860Z,56.40
2017-11-23T01:06:45.296Z,56.60
2017-11-23T01:09:12.727Z,56.50
2017-11-23T01:11:40.160Z,56.80
2017-11-23T01:14:07.588Z,57.00
2017-11-23T01:16:35.072Z,57.10
2017-11-23T01:19:02.519Z,57.40
2017-11-23T01:21:29.976Z,57.90
2017-11-23T01:23:57.494Z,58.50
2017-11-23T01:26:25.121Z,58.20
2017-11-23T01:28:52.558Z,58.70
2017-11-23T01:31:20.003Z,58.40
2017-11-23T01:33:47.437Z,58.60
2017-11-23T01:36:14.882Z,58.50
2017-11-23T01:38:42.305Z,58.40
2017-11-23T01:41:09.741Z,58.30
2017-11-23T01:43:38.040Z,58.80
2017-11-23T01:46:05.461Z,58.80
2017-11-23T01:48:32.913Z,58.60
2017-11-23T01:51:00.341Z,58.50
2017-11-23T01:53:27.784Z,58.40
2017-11-23T01:55:55.212Z,58.60
2017-11-23T01:58:23.412Z,58.80
2017-11-23T02:00:50.841Z,58.90
2017-11-23T02:03:18.291Z,58.90
2017-11-23T02:05:45.770Z,59.00
2017-11-23T02:08:13.218Z,59.40
2017-11-23T02:10:40.645Z,60.10
2017-11-23T02:13:08.088Z,59.60
2017-11-23T02:15:35.511Z,59.20
2017-11-23T02:18:02.969Z,58.90
2017-11-23T02:20:30.403Z,58.90
2017-11-23T02:22:57.846Z,58.70
2017-11-23T02:25:25.284Z,58.30
2017-11-23T02:27:52.705Z,58.60
2017-11-23T02:30:20.148Z,58.50
2017-11-23T02:32:47.590Z,58.10
2017-11-23T02:35:15.156Z,57.80
2017-11-23T02:37:42.594Z,58.30
2017-11-23T02:40:10.024Z,57.90
2017-11-23T02:42:37.508Z,58.20
2017-11-23T02:45:04.941Z,58.20
2017-11-23T02:47:32.393Z,58.30
2017-11-23T02:50:01.336Z,58.30
2017-11-23T02:52:28.784Z,58.30
2017-11-23T02:54:56.218Z,58.00
2017-11-23T02:57:23.666Z,57.60
2017-11-23T02:59:51.111Z,58.70
2017-11-23T03:02:18.585Z,59.20
2017-11-23T03:04:46.009Z,60.10
2017-11-23T03:07:13.450Z,60.30
2017-11-23T03:09:40.889Z,60.20
2017-11-23T03:12:08.308Z,59.90
2017-11-23T03:14:35.797Z,59.70
2017-11-23T03:17:03.225Z,59.30
2017-11-23T03:19:30.677Z,60.10
2017-11-23T03:21:58.101Z,60.10
2017-11-23T03:24:25.533Z,60.80
2017-11-23T03:26:52.966Z,60.50
2017-11-23T03:29:20.409Z,60.50
2017-11-23T03:31:47.889Z,60.60
2017-11-23T03:34:15.315Z,60.30
2017-11-23T03:36:42.750Z,60.40
2017-11-23T03:39:10.185Z,60.20
2017-11-23T03:41:37.634Z,60.10
2017-11-23T03:44:05.072Z,60.00
2017-11-23T03:46:32.542Z,60.50
2017-11-23T03:48:59.982Z,60.70
2017-11-23T03:51:27.429Z,60.70
2017-11-23T03:53:54.886Z,62.40
2017-11-23T03:56:22.421Z,62.20
2017-11-23T03:58:49.845Z,61.30
2017-11-23T04:01:17.313Z,62.10
2017-11-23T04:03:44.752Z,62.70
2017-11-23T04:06:12.286Z,63.30
2017-11-23T04:08:39.829Z,62.20
2017-11-23T04:11:07.262Z,62.20
2017-11-23T04:13:34.689Z,62.20
2017-11-23T04:16:02.122Z,62.20
2017-11-23T04:18:29.548Z,62.50
2017-11-23T04:20:56.981Z,62.50
2017-11-23T04:23:25.188Z,63.00
2017-11-23T04:25:52.642Z,63.00
2017-11-23T04:28:20.109Z,62.80
2017-11-23T04:30:47.539Z,62.60
2017-11-23T04:33:15.090Z,62.60
2017-11-23T04:35:42.512Z,62.80
2017-11-23T04:38:09.967Z,62.90
2017-11-23T04:40:37.410Z,63.20
2017-11-23T04:43:04.853Z,63.20
2017-11-23T04:45:32.300Z,63.40
2017-11-23T04:48:01.252Z,64.10
2017-11-23T04:50:28.745Z,64.10
2017-11-23T04:52:56.973Z,64.10
2017-11-23T04:55:24.419Z,64.10
2017-11-23T04:57:51.850Z,63.60
2017-11-23T05:00:19.485Z,63.70
2017-11-23T05:02:46.969Z,63.90
2017-11-23T05:05:15.169Z,64.30
2017-11-23T05:07:42.616Z,63.60
2017-11-23T05:10:10.057Z,63.20
2017-11-23T05:12:37.532Z,63.30
2017-11-23T05:15:04.962Z,63.60
2017-11-23T05:17:32.409Z,63.30
2017-11-23T05:19:59.877Z,62.50
2017-11-23T05:22:27.410Z,62.50
2017-11-23T05:24:54.929Z,62.50
2017-11-23T05:27:22.411Z,62.50
2017-11-23T05:29:49.845Z,62.50
2017-11-23T05:32:17.279Z,63.20
2017-11-23T05:34:44.713Z,62.80
2017-11-23T05:37:12.149Z,62.30
2017-11-23T05:39:39.613Z,62.40
2017-11-23T05:42:07.045Z,61.60
2017-11-23T05:44:34.522Z,62.40
2017-11-23T05:47:02.759Z,62.20
2017-11-23T05:49:30.305Z,62.20
2017-11-23T05:51:57.720Z,61.90
2017-11-23T05:54:25.164Z,61.30
2017-11-23T05:56:52.634Z,61.30
2017-11-23T05:59:20.095Z,60.70
2017-11-23T06:01:47.546Z,60.80
2017-11-23T06:04:15.754Z,60.90
2017-11-23T06:06:43.182Z,60.90
2017-11-23T06:09:10.630Z,61.00
2017-11-23T06:11:38.178Z,60.70
2017-11-23T06:14:05.657Z,60.90
2017-11-23T06:16:33.093Z,61.00
2017-11-23T06:19:00.661Z,61.30
2017-11-23T06:21:28.903Z,61.90
2017-11-23T06:23:56.336Z,61.80
2017-11-23T06:26:23.784Z,61.70
2017-11-23T06:28:51.222Z,61.50
2017-11-23T06:31:18.781Z,61.40
2017-11-23T06:33:46.205Z,61.20
2017-11-23T06:36:13.676Z,62.00
2017-11-23T06:38:41.212Z,61.20
2017-11-23T06:41:08.661Z,61.40
2017-11-23T06:43:36.110Z,61.10
2017-11-23T06:46:04.349Z,61.00
2017-11-23T06:48:31.781Z,61.00
2017-11-23T06:50:59.217Z,60.90
2017-11-23T06:53:26.690Z,61.00
2017-11-23T06:55:54.123Z,61.00
2017-11-23T06:58:21.660Z,60.90
2017-11-23T07:00:49.097Z,61.20
2017-11-23T07:03:16.532Z,61.00
2017-11-23T07:05:43.990Z,61.50
2017-11-23T07:08:12.210Z,61.10
2017-11-23T07:10:39.673Z,61.20
2017-11-23T07:13:07.150Z,61.20
2017-11-23T07:15:34.589Z,61.00
2017-11-23T07:18:02.124Z,61.10
2017-11-23T07:20:29.570Z,60.90
2017-11-23T07:22:57.147Z,60.50
2017-11-23T07:25:25.343Z,59.90
2017-11-23T07:27:52.797Z,60.00
2017-11-23T07:30:20.364Z,59.60
2017-11-23T07:32:47.809Z,59.00
2017-11-23T07:35:15.368Z,58.20
2017-11-23T07:37:42.898Z,57.80
2017-11-23T07:40:10.321Z,57.30
2017-11-23T07:42:37.763Z,56.20
2017-11-23T07:45:05.198Z,55.20
2017-11-23T07:47:32.658Z,55.10
2017-11-23T07:50:00.119Z,54.20
2017-11-23T07:52:28.345Z,54.10
2017-11-23T07:54:55.878Z,53.50
2017-11-23T07:57:23.427Z,53.50
2017-11-23T07:59:50.901Z,52.90
2017-11-23T08:02:18.348Z,53.00
2017-11-23T08:04:45.885Z,52.20
2017-11-23T08:07:13.430Z,51.40
2017-11-23T08:09:40.972Z,50.80
2017-11-23T08:12:08.416Z,50.60
2017-11-23T08:14:35.977Z,50.20
2017-11-23T08:17:03.409Z,50.50
2017-11-23T08:19:30.862Z,50.50
2017-11-23T08:21:59.177Z,48.60
2017-11-23T08:24:26.664Z,48.50
2017-11-23T08:26:54.112Z,47.60
2017-11-23T08:29:22.399Z,47.00
2017-11-23T08:31:49.838Z,47.00
2017-11-23T08:34:17.349Z,46.40
2017-11-23T08:36:44.917Z,46.40
2017-11-23T08:39:12.375Z,46.00
2017-11-23T08:41:39.837Z,45.60
2017-11-23T08:44:07.330Z,45.20
2017-11-23T08:46:34.816Z,45.40
2017-11-23T08:49:02.267Z,45.60
2017-11-23T08:51:29.708Z,45.30
2017-11-23T08:53:57.273Z,44.50
2017-11-23T08:56:24.841Z,44.80
2017-11-23T08:58:52.288Z,43.50
2017-11-23T09:01:19.806Z,43.40
2017-11-23T09:03:47.274Z,42.80
2017-11-23T09:06:14.707Z,42.40
2017-11-23T09:08:42.173Z,42.60
2017-11-23T09:11:10.410Z,41.40
2017-11-23T09:13:37.972Z,41.30
2017-11-23T09:16:05.408Z,41.50
2017-11-23T09:18:32.900Z,40.80
2017-11-23T09:21:00.342Z,40.40
2017-11-23T09:23:27.831Z,40.60
2017-11-23T09:25:55.377Z,39.30
2017-11-23T09:28:22.946Z,37.70
2017-11-23T09:30:50.394Z,36.80
2017-11-23T09:33:18.586Z,35.90
2017-11-23T09:35:46.084Z,35.80
2017-11-23T09:38:14.236Z,35.80
2017-11-23T09:40:41.674Z,36.90
2017-11-23T09:43:09.110Z,35.80
2017-11-23T09:45:36.838Z,35.10
2017-11-23T09:48:04.250Z,35.40
2017-11-23T09:50:31.689Z,35.70
2017-11-23T09:52:59.121Z,34.90
2017-11-23T09:55:27.330Z,34.90
2017-11-23T09:57:54.846Z,34.90
2017-11-23T10:00:22.367Z,34.10
2017-11-23T10:02:50.559Z,34.70
2017-11-23T10:05:18.020Z,34.10
2017-11-23T10:07:45.457Z,34.00
2017-11-23T10:10:12.880Z,33.60
2017-11-23T10:12:40.326Z,34.30
2017-11-23T10:15:07.771Z,34.40
2017-11-23T10:17:35.215Z,34.30
2017-11-23T10:20:02.642Z,34.60
2017-11-23T10:22:30.141Z,34.70
2017-11-23T10:24:57.669Z,34.80
2017-11-23T10:27:25.141Z,36.30
2017-11-23T10:29:52.599Z,37.10
2017-11-23T10:32:20.822Z,38.40
2017-11-23T10:34:48.269Z,38.30
2017-11-23T10:37:15.719Z,38.50
2017-11-23T10:39:43.174Z,38.50
2017-11-23T10:42:10.622Z,38.80
2017-11-23T10:44:38.829Z,39.10
2017-11-23T10:47:06.305Z,39.00
2017-11-23T10:49:34.565Z,39.20
2017-11-23T10:52:02.006Z,39.20
2017-11-23T10:54:29.446Z,39.10
2017-11-23T10:56:57.036Z,39.00
2017-11-23T10:59:25.215Z,39.10
2017-11-23T11:01:52.685Z,39.10
2017-11-23T11:04:20.113Z,38.90
2017-11-23T11:06:47.569Z,39.20
2017-11-23T11:09:15.006Z,39.60
2017-11-23T11:11:42.443Z,39.70
2017-11-23T11:14:10.302Z,40.00
2017-11-23T11:16:37.777Z,40.00
2017-11-23T11:19:05.209Z,39.80
2017-11-23T11:21:32.645Z,39.90
2017-11-23T11:24:00.089Z,39.80
2017-11-23T11:26:27.525Z,39.60
2017-11-23T11:28:54.977Z,39.40
2017-11-23T11:31:22.438Z,39.90
2017-11-23T11:33:50.681Z,40.10
2017-11-23T11:36:18.228Z,40.10
2017-11-23T11:38:45.666Z,40.10
2017-11-23T11:41:13.102Z,40.00
2017-11-23T11:43:40.538Z,40.00
2017-11-23T11:46:07.973Z,39.60
2017-11-23T11:48:35.502Z,39.30
2017-11-23T11:51:03.702Z,39.40
2017-11-23T11:53:31.143Z,39.30
2017-11-23T11:55:58.577Z,39.40
2017-11-23T11:58:26.019Z,39.50
2017-11-23T12:00:53.463Z,39.10
2017-11-23T12:03:20.918Z,38.40
2017-11-23T12:05:48.362Z,38.00
2017-11-23T12:08:16.186Z,37.70
2017-11-23T12:10:43.652Z,37.60
2017-11-23T12:13:11.089Z,38.10
2017-11-23T12:15:38.657Z,37.70
2017-11-23T12:18:18.062Z,38.70
2017-11-23T12:20:57.520Z,38.10
2017-11-23T12:23:36.849Z,38.10
2017-11-23T12:26:04.290Z,37.80
2017-11-23T12:28:56.276Z,37.80
2017-11-23T12:31:24.494Z,37.50
2017-11-23T12:33:51.935Z,37.50
2017-11-23T12:36:19.491Z,37.40
2017-11-23T12:38:47.010Z,37.50
2017-11-23T12:41:14.563Z,37.50
2017-11-23T12:43:41.991Z,37.20
2017-11-23T12:46:09.435Z,35.70
2017-11-23T12:48:36.930Z,34.70
2017-11-23T12:51:04.409Z,34.40
2017-11-23T12:53:32.678Z,33.00
2017-11-23T12:56:00.110Z,32.90
2017-11-23T12:58:27.550Z,33.30
2017-11-23T13:00:55.756Z,33.60
2017-11-23T13:03:23.222Z,33.60
2017-11-23T13:05:51.585Z,33.70
2017-11-23T13:08:20.081Z,34.20
2017-11-23T13:10:48.329Z,34.40
2017-11-23T13:13:16.839Z,34.40
2017-11-23T13:15:44.333Z,34.40
2017-11-23T13:18:11.865Z,34.20
2017-11-23T13:20:40.000Z,34.30
2017-11-23T13:23:07.441Z,33.90
2017-11-23T13:25:34.880Z,34.00
2017-11-23T13:28:02.326Z,33.90
2017-11-23T13:30:29.775Z,33.30
2017-11-23T13:32:57.222Z,33.10
2017-11-23T13:35:24.676Z,33.30
2017-11-23T13:37:52.145Z,33.10
2017-11-23T13:40:20.367Z,33.50
2017-11-23T13:42:47.809Z,33.50
2017-11-23T13:45:15.259Z,33.60
2017-11-23T13:47:42.769Z,33.90
2017-11-23T13:50:10.221Z,33.80
2017-11-23T13:52:37.690Z,34.10
2017-11-23T13:55:05.117Z,34.00
2017-11-23T13:57:32.589Z,33.80
2017-11-23T14:00:00.021Z,33.80
2017-11-23T14:02:27.488Z,33.80
2017-11-23T14:04:55.696Z,33.60
2017-11-23T14:07:23.188Z,33.60
2017-11-23T14:09:50.626Z,33.70
2017-11-23T14:12:18.066Z,34.10
2017-11-23T14:14:45.506Z,34.20
2017-11-23T14:17:12.989Z,34.20
2017-11-23T14:19:41.218Z,34.40
2017-11-23T14:22:08.650Z,34.30
2017-11-23T14:24:36.157Z,34.10
2017-11-23T14:27:03.596Z,34.30
2017-11-23T14:29:31.119Z,34.80
2017-11-23T14:31:59.343Z,35.20
2017-11-23T14:34:26.793Z,35.20
2017-11-23T14:36:55.014Z,35.60
2017-11-23T14:39:22.450Z,35.60
2017-11-23T14:41:49.897Z,35.50
2017-11-23T14:44:17.347Z,35.60
2017-11-23T14:46:44.789Z,35.90
2017-11-23T14:49:12.257Z,36.10
2017-11-23T14:51:39.754Z,36.20
2017-11-23T14:54:07.224Z,36.40
2017-11-23T14:56:34.699Z,36.40
2017-11-23T14:59:02.176Z,36.50
2017-11-23T15:01:29.688Z,36.90
2017-11-23T15:03:57.122Z,36.70
2017-11-23T15:06:24.666Z,37.10
2017-11-23T15:08:52.173Z,37.40
2017-11-23T15:11:19.798Z,37.40
2017-11-23T15:13:47.306Z,37.70
2017-11-23T15:16:14.763Z,37.90
2017-11-23T15:18:42.886Z,37.90
2017-11-23T15:21:10.334Z,38.10
2017-11-23T15:23:37.796Z,38.10
2017-11-23T15:26:06.007Z,38.20
2017-11-23T15:28:33.510Z,38.20
2017-11-23T15:31:01.809Z,38.50
2017-11-23T15:33:29.264Z,38.50
2017-11-23T15:35:57.553Z,38.50
2017-11-23T15:38:25.102Z,38.40
2017-11-23T15:40:52.679Z,38.30
2017-11-23T15:43:21.082Z,38.50
2017-11-23T15:45:49.526Z,38.40
2017-11-23T15:48:16.957Z,38.40
2017-11-23T15:50:44.412Z,38.40
2017-11-23T15:53:11.901Z,38.50
2017-11-23T15:55:39.352Z,38.30
2017-11-23T15:58:06.902Z,38.40
2017-11-23T16:00:34.374Z,38.50
2017-11-23T16:03:01.814Z,38.60
2017-11-23T16:05:30.010Z,39.00
2017-11-23T16:07:57.559Z,39.00
2017-11-23T16:10:25.026Z,39.00
2017-11-23T16:12:53.067Z,39.20
2017-11-23T16:15:20.549Z,39.40
2017-11-23T16:17:48.758Z,39.80
2017-11-23T16:20:16.226Z,39.90
2017-11-23T16:22:43.671Z,39.80
2017-11-23T16:25:11.146Z,40.00
2017-11-23T16:27:39.374Z,40.00
2017-11-23T16:30:06.819Z,40.00
2017-11-23T16:32:34.266Z,40.30
2017-11-23T16:35:01.714Z,40.30
2017-11-23T16:37:30.213Z,41.60
2017-11-23T16:40:00.472Z,41.10
2017-11-23T16:42:29.505Z,40.90
2017-11-23T16:45:02.725Z,41.00
2017-11-23T16:47:45.910Z,40.90
2017-11-23T16:53:27.789Z,41.40
2017-11-23T16:56:00.884Z,41.50
2017-11-23T16:58:34.136Z,41.60
2017-11-23T17:01:07.413Z,41.80
2017-11-23T17:03:52.501Z,42.20
2017-11-23T17:06:25.525Z,42.20
2017-11-23T17:08:58.808Z,42.30
2017-11-23T17:11:32.822Z,42.60
2017-11-23T17:14:06.149Z,42.60
2017-11-23T17:16:37.233Z,42.70
2017-11-23T17:19:06.031Z,43.30
2017-11-23T17:21:33.529Z,43.30
2017-11-23T17:24:01.868Z,44.30
2017-11-23T17:26:29.445Z,43.70
2017-11-23T17:28:57.695Z,43.70
2017-11-23T17:31:25.317Z,43.60
2017-11-23T17:33:52.884Z,43.80
2017-11-23T17:36:20.353Z,44.30
2017-11-23T17:38:48.577Z,44.40
2017-11-23T17:41:16.025Z,44.40
2017-11-23T17:43:43.484Z,44.50
2017-11-23T17:46:10.936Z,44.30
2017-11-23T17:48:39.182Z,44.70
2017-11-23T17:51:06.659Z,44.70
2017-11-23T17:53:34.122Z,44.80
2017-11-23T17:56:01.597Z,44.80
2017-11-23T17:58:29.057Z,45.00
2017-11-23T18:00:56.538Z,45.10
2017-11-23T18:03:24.043Z,45.80
2017-11-23T18:05:51.495Z,45.50
2017-11-23T18:08:19.761Z,46.20
2017-11-23T18:10:47.256Z,46.20
2017-11-23T18:13:14.794Z,46.10
2017-11-23T18:15:42.295Z,47.10
2017-11-23T18:18:10.543Z,48.20
2017-11-23T18:20:38.027Z,47.80
2017-11-23T18:23:05.642Z,47.50
2017-11-23T18:25:33.112Z,47.80
2017-11-23T18:28:00.629Z,48.20
2017-11-23T18:30:28.832Z,48.00
2017-11-23T18:32:56.292Z,48.00
2017-11-23T18:35:23.799Z,48.20
2017-11-23T18:37:51.239Z,48.20
2017-11-23T18:40:18.737Z,48.50
2017-11-23T18:42:46.237Z,48.50
2017-11-23T18:45:13.675Z,48.70
2017-11-23T18:47:41.163Z,48.60
2017-11-23T18:50:08.636Z,48.80
2017-11-23T18:52:36.214Z,48.80
2017-11-23T18:55:03.700Z,49.10
2017-11-23T18:57:31.180Z,49.40
2017-11-23T18:59:59.374Z,49.20
2017-11-23T19:02:27.631Z,49.30
2017-11-23T19:04:55.068Z,49.30
2017-11-23T19:07:22.555Z,49.30
2017-11-23T19:09:49.989Z,49.30
2017-11-23T19:12:17.481Z,49.30
2017-11-23T19:14:44.924Z,49.30
2017-11-23T19:17:12.645Z,49.40
2017-11-23T19:19:40.144Z,49.60
2017-11-23T19:22:07.642Z,49.70
2017-11-23T19:24:35.128Z,50.80
2017-11-23T19:27:02.609Z,50.50
2017-11-23T19:29:30.069Z,51.80
2017-11-23T19:31:57.565Z,51.90
2017-11-23T19:34:25.061Z,53.70
2017-11-23T19:36:52.580Z,52.80
2017-11-23T19:39:20.154Z,51.00
2017-11-23T19:41:47.662Z,50.60
2017-11-23T19:44:15.155Z,51.00
2017-11-23T19:46:42.622Z,50.90
2017-11-23T19:49:10.968Z,50.50
2017-11-23T19:51:38.497Z,50.60
2017-11-23T19:54:06.025Z,50.30
2017-11-23T19:56:34.268Z,49.80
2017-11-23T19:59:01.773Z,49.80
2017-11-23T20:01:29.288Z,49.80
2017-11-23T20:03:57.551Z,50.00
2017-11-23T20:06:25.026Z,50.00
2017-11-23T20:08:52.584Z,49.90
2017-11-23T20:11:20.199Z,50.00
2017-11-23T20:13:47.682Z,49.80
2017-11-23T20:16:15.179Z,49.70
2017-11-23T20:18:42.669Z,49.80
2017-11-23T20:21:10.106Z,49.80
2017-11-23T20:23:37.604Z,49.80
2017-11-23T20:26:05.120Z,49.50
2017-11-23T20:28:32.595Z,50.20
2017-11-23T20:31:00.088Z,49.30
2017-11-23T20:33:27.568Z,49.40
2017-11-23T20:35:55.829Z,49.50
2017-11-23T20:38:23.257Z,49.50
2017-11-23T20:40:51.507Z,49.30
2017-11-23T20:43:19.008Z,49.30
2017-11-23T20:45:46.457Z,49.40
2017-11-23T20:48:13.985Z,49.40
2017-11-23T20:50:41.460Z,49.30
2017-11-23T20:53:08.984Z,49.60
2017-11-23T20:55:36.475Z,49.30
2017-11-23T20:58:03.952Z,49.30
2017-11-23T21:00:31.456Z,49.30
2017-11-23T21:02:58.945Z,49.60
2017-11-23T21:05:26.412Z,49.30
2017-11-23T21:07:53.884Z,49.30
2017-11-23T21:10:21.362Z,49.30
2017-11-23T21:12:49.616Z,49.70
2017-11-23T21:15:17.995Z,49.70
2017-11-23T21:17:45.496Z,49.70
2017-11-23T21:20:12.968Z,49.40
2017-11-23T21:22:41.252Z,49.60
2017-11-23T21:25:08.748Z,49.60
2017-11-23T21:27:36.230Z,49.40
2017-11-23T21:30:03.777Z,49.20
2017-11-23T21:32:31.325Z,49.40
2017-11-23T21:34:58.817Z,49.20
2017-11-23T21:37:26.299Z,49.30
2017-11-23T21:39:54.532Z,49.70
2017-11-23T21:42:22.120Z,49.70
2017-11-23T21:44:49.646Z,49.50
2017-11-23T21:47:17.912Z,48.80
2017-11-23T21:49:45.407Z,48.80
2017-11-23T21:52:13.703Z,48.80
2017-11-23T21:54:41.617Z,48.80
2017-11-23T21:57:09.135Z,48.80
2017-11-23T21:59:36.643Z,48.80
2017-11-23T22:02:04.196Z,48.90
2017-11-23T22:04:32.444Z,48.70
2017-11-23T22:06:59.919Z,48.60
2017-11-23T22:09:27.432Z,49.10
2017-11-23T22:11:54.932Z,48.70
2017-11-23T22:14:22.461Z,49.00
2017-11-23T22:16:49.951Z,48.70
2017-11-23T22:19:17.464Z,48.70
2017-11-23T22:21:45.106Z,48.70
2017-11-23T22:24:12.657Z,48.60
2017-11-23T22:26:40.104Z,48.80
2017-11-23T22:29:07.602Z,49.20
2017-11-23T22:31:35.835Z,49.20
2017-11-23T22:34:03.428Z,49.10
2017-11-23T22:36:30.980Z,49.30
2017-11-23T22:38:58.511Z,49.60
2017-11-23T22:41:25.981Z,49.90
2017-11-23T22:43:53.458Z,50.00
2017-11-23T22:46:21.077Z,50.00
2017-11-23T22:48:48.529Z,50.00
2017-11-23T22:51:16.018Z,50.10
2017-11-23T22:53:44.264Z,51.60
2017-11-23T22:56:11.845Z,51.60
2017-11-23T22:58:39.277Z,51.70
2017-11-23T23:01:06.734Z,51.60
2017-11-23T23:03:34.210Z,51.20
2017-11-23T23:06:01.724Z,51.00
2017-11-23T23:08:29.220Z,50.70
2017-11-23T23:10:56.799Z,51.30
2017-11-23T23:13:24.285Z,49.60
2017-11-23T23:15:51.774Z,49.60
2017-11-23T23:18:19.999Z,49.90
2017-11-23T23:20:47.687Z,49.90
2017-11-23T23:23:16.054Z,50.00
2017-11-23T23:25:43.669Z,50.10
2017-11-23T23:28:11.116Z,50.20
2017-11-23T23:30:38.603Z,50.30
2017-11-23T23:33:06.049Z,50.20
2017-11-23T23:35:33.556Z,50.70
2017-11-23T23:38:01.774Z,49.20
2017-11-23T23:40:30.219Z,49.60
2017-11-23T23:42:57.672Z,49.60
2017-11-23T23:45:25.114Z,49.50
2017-11-23T23:47:52.570Z,49.30
2017-11-23T23:50:20.029Z,49.20
2017-11-23T23:52:47.592Z,49.10
2017-11-23T23:55:15.131Z,49.10
2017-11-23T23:57:42.592Z,49.80
